createdAt,value
2018-08-04T00:01:14.245Z,2.23
2018-08-04T00:03:42.712Z,2.30
2018-08-04T00:06:11.148Z,2.13
2018-08-04T00:08:39.576Z,2.20
2018-08-04T00:11:08.060Z,2.10
2018-08-04T00:13:36.492Z,2.20
2018-08-04T00:16:05.104Z,2.40
2018-08-04T00:18:33.549Z,2.00
2018-08-04T00:21:02.009Z,1.63
2018-08-04T00:23:30.432Z,2.37
2018-08-04T00:25:58.836Z,2.23
2018-08-04T00:28:27.253Z,2.20
2018-08-04T00:30:55.693Z,2.27
2018-08-04T00:33:24.149Z,2.30
2018-08-04T00:35:52.557Z,2.70
2018-08-04T00:38:20.975Z,2.27
2018-08-04T00:40:49.456Z,2.67
2018-08-04T00:43:17.892Z,2.57
2018-08-04T00:45:46.316Z,2.50
2018-08-04T00:48:14.716Z,2.27
2018-08-04T00:50:43.163Z,2.73
2018-08-04T00:53:11.634Z,2.17
2018-08-04T00:55:40.073Z,2.90
2018-08-04T00:58:08.540Z,2.50
2018-08-04T01:00:36.982Z,2.40
2018-08-04T01:03:05.445Z,2.57
2018-08-04T01:05:33.876Z,2.17
2018-08-04T01:08:02.305Z,2.17
2018-08-04T01:10:30.728Z,2.60
2018-08-04T01:12:59.172Z,2.83
2018-08-04T01:15:27.608Z,2.60
2018-08-04T01:17:56.024Z,2.53
2018-08-04T01:20:24.479Z,2.57
2018-08-04T01:22:52.900Z,3.03
2018-08-04T01:25:21.337Z,3.00
2018-08-04T01:27:49.768Z,2.43
2018-08-04T01:30:18.208Z,2.80
2018-08-04T01:32:46.652Z,2.70
2018-08-04T01:35:15.124Z,2.50
2018-08-04T01:37:43.556Z,2.73
2018-08-04T01:40:12.021Z,2.80
2018-08-04T01:42:40.468Z,3.00
2018-08-04T01:45:08.870Z,2.83
2018-08-04T01:47:37.308Z,2.70
2018-08-04T01:50:06.268Z,3.00
2018-08-04T01:52:34.672Z,2.60
2018-08-04T01:55:03.100Z,3.10
2018-08-04T01:57:31.552Z,2.80
2018-08-04T01:59:59.995Z,3.00
2018-08-04T02:02:28.423Z,2.70
2018-08-04T02:04:56.927Z,2.80
2018-08-04T02:07:25.464Z,2.93
2018-08-04T02:09:53.940Z,2.57
2018-08-04T02:12:22.471Z,2.83
2018-08-04T02:14:50.896Z,3.07
2018-08-04T02:17:19.320Z,3.07
2018-08-04T02:19:47.732Z,2.83
2018-08-04T02:22:16.160Z,2.90
2018-08-04T02:24:44.648Z,2.87
2018-08-04T02:27:13.084Z,3.43
2018-08-04T02:29:41.508Z,2.93
2018-08-04T02:32:09.928Z,3.43
2018-08-04T02:34:38.348Z,3.40
2018-08-04T02:37:06.773Z,3.20
2018-08-04T02:39:35.261Z,3.30
2018-08-04T02:42:03.736Z,2.93
2018-08-04T02:44:32.157Z,3.30
2018-08-04T02:47:00.572Z,3.40
2018-08-04T02:49:28.977Z,3.40
2018-08-04T02:51:57.453Z,2.90
2018-08-04T02:54:25.856Z,2.90
2018-08-04T02:56:54.265Z,3.03
2018-08-04T02:59:22.693Z,3.07
2018-08-04T03:01:51.113Z,2.93
2018-08-04T03:04:19.553Z,3.03
2018-08-04T03:06:47.986Z,3.10
2018-08-04T03:09:16.748Z,3.20
2018-08-04T03:11:45.179Z,2.80
2018-08-04T03:14:13.577Z,3.20
2018-08-04T03:16:41.999Z,2.63
2018-08-04T03:19:10.396Z,2.90
2018-08-04T03:21:38.852Z,3.40
2018-08-04T03:24:07.289Z,2.80
2018-08-04T03:26:35.721Z,3.73
2018-08-04T03:29:04.176Z,3.57
2018-08-04T03:31:32.600Z,3.50
2018-08-04T03:34:01.032Z,3.27
2018-08-04T03:36:29.480Z,3.93
2018-08-04T03:38:57.872Z,3.20
2018-08-04T03:41:26.321Z,3.87
2018-08-04T03:43:54.732Z,3.20
2018-08-04T03:46:23.153Z,4.43
2018-08-04T03:48:51.556Z,3.13
2018-08-04T03:51:19.977Z,3.70
2018-08-04T03:53:48.392Z,3.60
2018-08-04T03:56:16.816Z,3.73
2018-08-04T03:58:45.284Z,3.70
2018-08-04T04:01:13.712Z,3.40
2018-08-04T04:03:42.136Z,4.10
2018-08-04T04:06:10.556Z,4.40
2018-08-04T04:08:38.960Z,3.77
2018-08-04T04:11:07.396Z,3.47
2018-08-04T04:13:35.815Z,3.77
2018-08-04T04:16:04.336Z,3.63
2018-08-04T04:18:32.736Z,3.97
2018-08-04T04:21:01.172Z,3.63
2018-08-04T04:23:29.568Z,4.07
2018-08-04T04:25:58.029Z,3.70
2018-08-04T04:28:26.492Z,3.70
2018-08-04T04:30:54.916Z,3.83
2018-08-04T04:33:23.349Z,3.87
2018-08-04T04:35:51.917Z,3.90
2018-08-04T04:38:20.336Z,4.70
2018-08-04T04:40:48.776Z,4.30
2018-08-04T04:43:17.184Z,4.17
2018-08-04T04:45:45.619Z,4.37
2018-08-04T04:48:14.028Z,4.40
2018-08-04T04:50:42.528Z,3.97
2018-08-04T04:53:10.964Z,3.40
2018-08-04T04:55:39.369Z,4.73
2018-08-04T04:58:07.847Z,4.50
2018-08-04T05:00:36.316Z,4.30
2018-08-04T05:03:04.765Z,4.13
2018-08-04T05:05:33.209Z,4.03
2018-08-04T05:08:01.622Z,3.80
2018-08-04T05:10:30.076Z,4.40
2018-08-04T05:12:58.481Z,4.50
2018-08-04T05:15:26.900Z,4.47
2018-08-04T05:17:55.332Z,4.07
2018-08-04T05:20:23.756Z,4.60
2018-08-04T05:22:52.157Z,4.20
2018-08-04T05:25:20.592Z,4.13
2018-08-04T05:27:49.008Z,4.30
2018-08-04T05:30:17.408Z,4.47
2018-08-04T05:32:45.878Z,4.40
2018-08-04T05:35:15.000Z,4.13
2018-08-04T05:37:43.424Z,4.33
2018-08-04T05:40:11.896Z,4.47
2018-08-04T05:42:40.292Z,4.23
2018-08-04T05:45:09.341Z,4.87
2018-08-04T05:47:37.986Z,3.90
2018-08-04T05:50:07.000Z,4.40
2018-08-04T05:52:35.464Z,4.00
2018-08-04T05:55:04.144Z,4.23
2018-08-04T05:57:32.652Z,4.43
2018-08-04T06:00:01.056Z,4.00
2018-08-04T06:02:29.541Z,4.10
2018-08-04T06:04:57.948Z,4.27
2018-08-04T06:07:26.442Z,4.30
2018-08-04T06:09:55.220Z,4.20
2018-08-04T06:12:23.736Z,4.50
2018-08-04T06:14:52.284Z,4.40
2018-08-04T06:17:20.789Z,4.60
2018-08-04T06:19:49.347Z,5.03
2018-08-04T06:22:17.804Z,4.60
2018-08-04T06:24:46.246Z,4.40
2018-08-04T06:27:14.673Z,4.70
2018-08-04T06:29:43.084Z,4.30
2018-08-04T06:32:11.496Z,4.80
2018-08-04T06:34:40.101Z,4.77
2018-08-04T06:37:08.563Z,4.80
2018-08-04T06:39:36.980Z,4.90
2018-08-04T06:42:05.601Z,4.03
2018-08-04T06:44:34.093Z,3.90
2018-08-04T06:47:02.604Z,4.47
2018-08-04T06:49:31.028Z,4.37
2018-08-04T06:51:59.468Z,4.40
2018-08-04T06:54:27.964Z,5.17
2018-08-04T06:56:56.397Z,4.40
2018-08-04T06:59:24.832Z,5.10
2018-08-04T07:01:53.250Z,5.20
2018-08-04T07:04:21.700Z,5.30
2018-08-04T07:06:50.132Z,4.83
2018-08-04T07:09:19.009Z,4.33
2018-08-04T07:11:47.454Z,5.40
2018-08-04T07:14:15.872Z,4.90
2018-08-04T07:16:44.309Z,5.07
2018-08-04T07:19:12.726Z,5.30
2018-08-04T07:21:41.154Z,5.20
2018-08-04T07:24:09.548Z,4.90
2018-08-04T07:26:37.988Z,5.00
2018-08-04T07:29:06.521Z,4.73
2018-08-04T07:31:35.108Z,4.70
2018-08-04T07:34:03.614Z,4.40
2018-08-04T07:36:32.021Z,4.50
2018-08-04T07:39:00.452Z,4.80
2018-08-04T07:41:28.910Z,4.43
2018-08-04T07:43:57.312Z,4.23
2018-08-04T07:46:25.732Z,4.83
2018-08-04T07:48:54.461Z,4.80
2018-08-04T07:51:22.900Z,4.97
2018-08-04T07:53:51.313Z,5.53
2018-08-04T07:56:19.865Z,5.00
2018-08-04T07:58:48.268Z,4.73
2018-08-04T08:01:16.700Z,4.77
2018-08-04T08:03:45.133Z,4.43
2018-08-04T08:06:13.578Z,4.57
2018-08-04T08:08:41.995Z,5.20
2018-08-04T08:11:10.508Z,4.93
2018-08-04T08:13:38.881Z,5.63
2018-08-04T08:16:07.321Z,5.07
2018-08-04T08:18:35.785Z,5.27
2018-08-04T08:21:04.252Z,5.23
2018-08-04T08:23:32.668Z,4.77
2018-08-04T08:26:10.436Z,5.40
2018-08-04T08:28:39.659Z,5.17
2018-08-04T08:31:08.210Z,4.57
2018-08-04T08:33:37.219Z,4.73
2018-08-04T08:36:05.985Z,4.77
2018-08-04T08:38:34.419Z,4.70
2018-08-04T08:41:02.943Z,4.60
2018-08-04T08:43:31.392Z,4.73
2018-08-04T08:45:59.970Z,5.00
2018-08-04T08:48:28.400Z,5.03
2018-08-04T08:50:56.860Z,4.40
2018-08-04T08:53:25.686Z,4.50
2018-08-04T08:55:54.357Z,4.90
2018-08-04T08:58:22.849Z,4.60
2018-08-04T09:00:51.340Z,4.30
2018-08-04T09:03:19.836Z,4.27
2018-08-04T09:05:48.297Z,4.40
2018-08-04T09:08:16.833Z,5.50
2018-08-04T09:10:45.326Z,4.73
2018-08-04T09:13:13.858Z,4.40
2018-08-04T09:15:42.383Z,4.00
2018-08-04T09:18:10.891Z,4.20
2018-08-04T09:20:39.388Z,4.83
2018-08-04T09:23:07.971Z,4.90
2018-08-04T09:25:36.470Z,5.40
2018-08-04T09:28:05.033Z,4.10
2018-08-04T09:30:33.602Z,3.63
2018-08-04T09:33:02.144Z,4.03
2018-08-04T09:35:30.645Z,3.63
2018-08-04T09:37:59.272Z,3.10
2018-08-04T09:40:27.859Z,3.20
2018-08-04T09:42:57.384Z,3.27
2018-08-04T09:45:25.904Z,3.00
2018-08-04T09:47:54.408Z,2.70
2018-08-04T09:50:22.965Z,3.43
2018-08-04T09:52:51.528Z,3.30
2018-08-04T09:55:20.168Z,2.80
2018-08-04T09:57:48.690Z,2.57
2018-08-04T10:00:22.821Z,3.40
2018-08-04T10:02:51.309Z,3.00
2018-08-04T10:05:19.793Z,3.17
2018-08-04T10:07:48.457Z,2.70
2018-08-04T10:10:16.917Z,3.63
2018-08-04T10:12:45.551Z,3.23
2018-08-04T10:15:13.704Z,3.30
2018-08-04T10:17:42.192Z,3.60
2018-08-04T10:20:11.704Z,3.50
2018-08-04T10:22:40.253Z,3.70
2018-08-04T10:25:09.116Z,3.90
2018-08-04T10:27:37.674Z,3.93
2018-08-04T10:30:08.426Z,2.90
2018-08-04T10:32:36.998Z,2.73
2018-08-04T10:35:05.994Z,2.70
2018-08-04T10:37:34.508Z,3.00
2018-08-04T10:40:03.126Z,3.20
2018-08-04T10:42:31.623Z,3.13
2018-08-04T10:45:00.129Z,3.10
2018-08-04T10:47:28.614Z,2.60
2018-08-04T10:49:57.133Z,2.70
2018-08-04T10:52:25.661Z,2.40
2018-08-04T10:54:54.194Z,2.40
2018-08-04T10:57:22.719Z,2.83
2018-08-04T10:59:51.186Z,2.23
2018-08-04T11:02:27.333Z,2.70
2018-08-04T11:04:55.820Z,2.43
2018-08-04T11:07:24.355Z,2.40
2018-08-04T11:09:53.105Z,2.47
2018-08-04T11:12:21.603Z,2.30
2018-08-04T11:14:50.139Z,2.40
2018-08-04T11:17:18.761Z,2.40
2018-08-04T11:19:47.311Z,2.40
2018-08-04T11:22:15.821Z,2.40
2018-08-04T11:24:44.347Z,2.53
2018-08-04T11:27:12.851Z,2.00
2018-08-04T11:29:41.345Z,2.10
2018-08-04T11:32:09.884Z,1.70
2018-08-04T11:34:38.476Z,1.90
2018-08-04T11:37:07.018Z,2.00
2018-08-04T11:39:35.538Z,2.00
2018-08-04T11:42:04.143Z,1.77
2018-08-04T11:44:32.647Z,1.70
2018-08-04T11:47:01.168Z,1.70
2018-08-04T11:49:29.620Z,1.87
2018-08-04T11:51:58.181Z,1.90
2018-08-04T11:54:26.678Z,1.90
2018-08-04T11:56:55.185Z,1.93
2018-08-04T11:59:23.727Z,2.00
2018-08-04T12:01:52.605Z,2.17
2018-08-04T12:04:21.100Z,2.40
2018-08-04T12:06:49.649Z,1.93
2018-08-04T12:09:18.158Z,1.90
2018-08-04T12:11:46.756Z,2.10
2018-08-04T12:14:15.827Z,2.00
2018-08-04T12:16:44.332Z,2.57
2018-08-04T12:19:12.808Z,2.67
2018-08-04T12:21:41.438Z,2.00
2018-08-04T12:24:09.969Z,2.50
2018-08-04T12:26:38.522Z,2.03
2018-08-04T12:29:07.002Z,1.90
2018-08-04T12:31:35.569Z,2.00
2018-08-04T12:34:04.060Z,1.93
2018-08-04T12:36:32.610Z,1.93
2018-08-04T12:39:01.128Z,1.43
2018-08-04T12:41:29.625Z,1.77
2018-08-04T12:43:58.155Z,1.83
2018-08-04T12:46:26.639Z,1.60
2018-08-04T12:48:55.129Z,1.73
2018-08-04T12:51:23.609Z,1.93
2018-08-04T12:53:53.197Z,1.80
2018-08-04T12:56:21.720Z,1.60
2018-08-04T12:58:50.220Z,1.53
2018-08-04T13:01:18.732Z,1.53
2018-08-04T13:03:47.245Z,1.70
2018-08-04T13:06:16.041Z,1.57
2018-08-04T13:08:44.610Z,2.00
2018-08-04T13:11:13.146Z,2.60
2018-08-04T13:13:42.661Z,3.70
2018-08-04T13:16:11.112Z,3.87
2018-08-04T13:18:39.593Z,2.83
2018-08-04T13:21:08.066Z,2.73
2018-08-04T13:23:36.619Z,2.30
2018-08-04T13:26:05.146Z,1.87
2018-08-04T13:28:33.664Z,1.70
2018-08-04T13:31:02.212Z,1.50
2018-08-04T13:33:30.768Z,1.77
2018-08-04T13:35:59.354Z,1.63
2018-08-04T13:38:27.857Z,1.20
2018-08-04T13:40:57.070Z,1.40
2018-08-04T13:43:25.585Z,1.30
2018-08-04T13:45:55.033Z,1.23
2018-08-04T13:48:23.557Z,1.20
2018-08-04T13:50:52.148Z,1.47
2018-08-04T13:53:20.921Z,1.80
2018-08-04T13:55:49.397Z,1.30
2018-08-04T13:58:17.880Z,1.20
2018-08-04T14:00:47.444Z,1.10
2018-08-04T14:03:15.957Z,1.20
2018-08-04T14:05:44.557Z,1.10
2018-08-04T14:08:13.050Z,1.33
2018-08-04T14:10:41.570Z,1.27
2018-08-04T14:13:10.041Z,1.27
2018-08-04T14:15:38.556Z,1.37
2018-08-04T14:18:07.080Z,1.17
2018-08-04T14:20:35.594Z,1.30
2018-08-04T14:23:04.104Z,1.22
2018-08-04T14:25:32.580Z,1.22
2018-08-04T14:28:01.134Z,1.40
2018-08-04T14:30:29.572Z,1.30
2018-08-04T14:32:58.082Z,1.30
2018-08-04T14:35:26.561Z,1.30
2018-08-04T14:37:55.017Z,1.23
2018-08-04T14:40:28.296Z,1.27
2018-08-04T14:42:56.824Z,1.33
2018-08-04T14:45:25.545Z,1.20
2018-08-04T14:47:56.697Z,1.33
2018-08-04T14:50:25.400Z,1.43
2018-08-04T14:52:54.909Z,1.40
2018-08-04T14:55:23.428Z,1.30
2018-08-04T14:57:51.905Z,1.40
2018-08-04T15:00:20.426Z,1.10
2018-08-04T15:02:48.864Z,1.30
2018-08-04T15:05:17.412Z,1.37
2018-08-04T15:07:45.938Z,1.40
2018-08-04T15:10:14.420Z,1.20
2018-08-04T15:12:42.871Z,1.47
2018-08-04T15:15:11.329Z,1.40
2018-08-04T15:17:40.093Z,1.23
2018-08-04T15:20:08.986Z,1.43
2018-08-04T15:22:37.521Z,1.60
2018-08-04T15:25:06.222Z,1.50
2018-08-04T15:27:35.067Z,1.20
2018-08-04T15:30:03.857Z,1.53
2018-08-04T15:32:32.345Z,1.73
2018-08-04T15:35:01.226Z,1.60
2018-08-04T15:37:29.720Z,1.30
2018-08-04T15:39:58.258Z,1.77
2018-08-04T15:42:26.768Z,1.50
2018-08-04T15:44:55.252Z,1.23
2018-08-04T15:47:23.908Z,1.30
2018-08-04T15:49:52.357Z,1.67
2018-08-04T15:52:20.880Z,4.17
2018-08-04T15:54:49.332Z,1.60
2018-08-04T15:57:17.844Z,1.50
2018-08-04T15:59:46.288Z,1.43
2018-08-04T16:02:14.772Z,3.37
2018-08-04T16:04:43.233Z,3.33
2018-08-04T16:07:11.711Z,1.63
2018-08-04T16:09:40.176Z,1.70
2018-08-04T16:12:08.753Z,1.37
2018-08-04T16:14:38.449Z,2.50
2018-08-04T16:17:07.224Z,1.50
2018-08-04T16:19:35.721Z,2.70
2018-08-04T16:22:05.588Z,2.23
2018-08-04T16:24:34.045Z,4.37
2018-08-04T16:27:02.508Z,1.97
2018-08-04T16:29:30.992Z,1.40
2018-08-04T16:31:59.447Z,3.90
2018-08-04T16:34:27.925Z,1.43
2018-08-04T16:36:56.408Z,1.40
2018-08-04T16:39:25.173Z,1.60
2018-08-04T16:41:53.738Z,1.73
2018-08-04T16:44:22.284Z,1.40
2018-08-04T16:46:50.824Z,1.77
2018-08-04T16:49:19.318Z,1.70
2018-08-04T16:51:47.817Z,1.50
2018-08-04T16:54:16.381Z,1.10
2018-08-04T16:56:44.860Z,1.53
2018-08-04T16:59:13.618Z,1.40
2018-08-04T17:01:42.149Z,1.30
2018-08-04T17:04:10.708Z,2.10
2018-08-04T17:06:39.306Z,1.40
2018-08-04T17:09:10.557Z,1.30
2018-08-04T17:11:39.046Z,1.50
2018-08-04T17:14:07.973Z,1.67
2018-08-04T17:16:36.529Z,1.67
2018-08-04T17:19:05.060Z,2.67
2018-08-04T17:21:33.602Z,2.03
2018-08-04T17:24:02.136Z,1.50
2018-08-04T17:26:30.700Z,2.13
2018-08-04T17:28:59.585Z,2.10
2018-08-04T17:31:28.061Z,2.27
2018-08-04T17:33:56.512Z,1.63
2018-08-04T17:36:24.972Z,1.80
2018-08-04T17:38:53.455Z,1.70
2018-08-04T17:41:22.977Z,2.13
2018-08-04T17:43:51.689Z,1.90
2018-08-04T17:46:20.221Z,2.10
2018-08-04T17:48:48.732Z,2.23
2018-08-04T17:51:17.225Z,2.50
2018-08-04T17:53:45.720Z,2.40
2018-08-04T17:56:14.240Z,2.50
2018-08-04T17:58:43.010Z,2.77
2018-08-04T18:01:11.797Z,2.10
2018-08-04T18:03:40.500Z,3.20
2018-08-04T18:06:09.009Z,2.73
2018-08-04T18:08:37.485Z,2.83
2018-08-04T18:11:06.221Z,2.50
2018-08-04T18:13:34.698Z,2.70
2018-08-04T18:16:03.286Z,2.30
2018-08-04T18:18:31.900Z,2.27
2018-08-04T18:21:00.549Z,2.40
2018-08-04T18:23:29.060Z,2.47
2018-08-04T18:25:57.621Z,2.33
2018-08-04T18:28:30.514Z,2.30
2018-08-04T18:30:59.117Z,2.37
2018-08-04T18:33:27.559Z,2.60
2018-08-04T18:35:56.129Z,2.30
2018-08-04T18:38:24.908Z,2.63
2018-08-04T18:40:53.505Z,2.40
2018-08-04T18:43:22.057Z,2.80
2018-08-04T18:45:50.632Z,2.63
2018-08-04T18:48:19.153Z,2.73
2018-08-04T18:50:47.672Z,3.00
2018-08-04T18:53:16.218Z,2.50
2018-08-04T18:55:45.353Z,2.70
2018-08-04T18:58:13.795Z,2.47
2018-08-04T19:00:42.344Z,2.73
2018-08-04T19:03:10.915Z,2.77
2018-08-04T19:05:39.393Z,3.00
2018-08-04T19:08:07.923Z,2.60
2018-08-04T19:10:36.417Z,2.87
2018-08-04T19:13:05.169Z,2.33
2018-08-04T19:15:33.664Z,2.67
2018-08-04T19:18:02.195Z,2.77
2018-08-04T19:20:30.719Z,2.37
2018-08-04T19:22:59.614Z,2.57
2018-08-04T19:25:28.095Z,2.77
2018-08-04T19:27:56.767Z,2.77
2018-08-04T19:30:25.185Z,2.43
2018-08-04T19:32:57.750Z,2.70
2018-08-04T19:35:26.253Z,2.47
2018-08-04T19:37:54.980Z,2.80
2018-08-04T19:40:23.461Z,3.03
2018-08-04T19:42:51.981Z,3.43
2018-08-04T19:45:20.432Z,3.10
2018-08-04T19:47:48.889Z,3.37
2018-08-04T19:50:17.377Z,3.03
2018-08-04T19:52:46.385Z,3.00
2018-08-04T19:55:15.903Z,2.73
2018-08-04T19:57:45.513Z,3.20
2018-08-04T20:00:16.284Z,3.13
2018-08-04T20:02:45.823Z,3.17
2018-08-04T20:05:15.419Z,3.37
2018-08-04T20:07:43.925Z,3.47
2018-08-04T20:10:12.909Z,3.33
2018-08-04T20:12:41.380Z,3.40
2018-08-04T20:15:09.868Z,3.43
2018-08-04T20:17:38.390Z,3.20
2018-08-04T20:20:06.896Z,3.43
2018-08-04T20:22:35.448Z,3.10
2018-08-04T20:25:04.163Z,3.67
2018-08-04T20:27:32.636Z,3.60
2018-08-04T20:30:01.049Z,3.40
2018-08-04T20:32:29.552Z,3.20
2018-08-04T20:34:58.078Z,3.23
2018-08-04T20:37:26.444Z,2.97
2018-08-04T20:39:55.104Z,3.40
2018-08-04T20:42:23.620Z,3.37
2018-08-04T20:44:52.101Z,3.30
2018-08-04T20:47:20.521Z,3.03
2018-08-04T20:49:49.012Z,3.03
2018-08-04T20:52:17.471Z,2.90
2018-08-04T20:54:46.008Z,3.33
2018-08-04T20:57:14.428Z,3.00
2018-08-04T20:59:42.920Z,2.90
2018-08-04T21:02:11.428Z,3.40
2018-08-04T21:04:39.880Z,3.20
2018-08-04T21:07:08.375Z,3.30
2018-08-04T21:09:36.835Z,2.87
2018-08-04T21:12:05.345Z,3.40
2018-08-04T21:14:33.877Z,3.33
2018-08-04T21:17:02.347Z,3.10
2018-08-04T21:19:30.832Z,3.50
2018-08-04T21:21:59.290Z,3.50
2018-08-04T21:24:27.751Z,3.50
2018-08-04T21:26:56.548Z,2.60
2018-08-04T21:29:25.216Z,3.40
2018-08-04T21:31:53.720Z,3.17
2018-08-04T21:34:22.184Z,3.03
2018-08-04T21:36:50.668Z,3.63
2018-08-04T21:39:19.996Z,3.87
2018-08-04T21:41:48.804Z,3.43
2018-08-04T21:44:17.395Z,3.70
2018-08-04T21:46:47.750Z,3.40
2018-08-04T21:49:16.415Z,4.00
2018-08-04T21:51:46.144Z,3.93
2018-08-04T21:54:19.915Z,4.13
2018-08-04T21:56:44.436Z,3.87
2018-08-04T21:59:13.000Z,3.93
2018-08-04T22:01:57.186Z,4.50
2018-08-04T22:04:26.092Z,4.47
2018-08-04T22:08:03.558Z,4.40
2018-08-04T22:10:31.972Z,5.30
2018-08-04T22:13:00.460Z,4.70
2018-08-04T22:15:28.873Z,5.10
2018-08-04T22:17:57.364Z,4.30
2018-08-04T22:20:26.368Z,5.07
2018-08-04T22:22:54.815Z,5.03
2018-08-04T22:25:25.382Z,5.47
2018-08-04T22:27:53.968Z,6.07
2018-08-04T22:30:22.973Z,5.83
2018-08-04T22:32:51.708Z,6.83
2018-08-04T22:35:20.368Z,6.93
2018-08-04T22:37:48.792Z,6.20
2018-08-04T22:40:18.128Z,6.93
2018-08-04T22:42:46.616Z,7.07
2018-08-04T22:46:11.925Z,7.77
2018-08-04T22:48:40.848Z,7.27
2018-08-04T22:51:09.274Z,7.80
2018-08-04T22:53:37.821Z,7.17
2018-08-04T22:56:06.293Z,7.23
2018-08-04T22:58:34.755Z,7.53
2018-08-04T23:01:03.260Z,7.53
2018-08-04T23:03:31.688Z,8.50
2018-08-04T23:06:00.101Z,8.77
2018-08-04T23:08:28.536Z,8.80
2018-08-04T23:10:56.976Z,10.10
2018-08-04T23:13:25.397Z,8.97
2018-08-04T23:15:53.824Z,10.17
2018-08-04T23:18:22.300Z,9.47
2018-08-04T23:20:50.720Z,11.20
2018-08-04T23:23:19.156Z,10.77
2018-08-04T23:25:47.588Z,10.27
2018-08-04T23:28:16.039Z,10.43
2018-08-04T23:30:44.449Z,10.80
2018-08-04T23:33:13.056Z,11.90
2018-08-04T23:35:41.629Z,11.77
2018-08-04T23:38:10.073Z,11.47
2018-08-04T23:40:38.501Z,11.70
2018-08-04T23:43:07.063Z,11.83
2018-08-04T23:45:35.544Z,12.17
2018-08-04T23:48:03.960Z,12.67
2018-08-04T23:50:32.428Z,12.00
2018-08-04T23:53:01.721Z,12.63
2018-08-04T23:55:30.173Z,13.83
2018-08-04T23:57:58.588Z,12.33
